• Join FlightAware (Why Join?)
  • Login
  • US Flag 
09:19PM EDT


 

Airport Tracker/Info


-or-


 

Live Flight TrackerFlight Track Log ✈ TMC855 ✈ 28-Apr-2013 ✈ KSTP - KMDW

Flight Track Log - Related Links

Times and Time Zones

All times are in EDT time to prevent confusion due to time zone crossing. See the TMC855 flight status page for this flight to view local times or setup timezone preferences in your user account.

Time Position Orientation Groundspeed Altitude Reporting Facility
EDT Latitude Longitude Course Direction KTS MPH feet Rate Location/Type
01:03PM 44.9167 -92.9500 90° East 204 235 3,000  Level Minneapolis TRACON
01:04PM 44.8956 -92.9056 124° Southeast 202 232 3,000 1,680 Level Minneapolis Center
01:05PM 44.8564 -92.8069 119° Southeast 249 287 6,000 3,360 Climbing Minneapolis Center
01:06PM 44.7875 -92.8019 177° South 254 292 10,000 3,600 Climbing Minneapolis Center
01:07PM 44.7097 -92.8078 183° South 276 318 13,500 3,000 Climbing Minneapolis Center
01:08PM 44.6242 -92.8144 183° South 304 350 16,300 2,880 Climbing Minneapolis Center
01:09PM 44.5325 -92.8244 184° South 326 375 19,500 3,000 Climbing Minneapolis Center
01:10PM 44.4411 -92.8325 184° South 328 377 22,600 2,700 Climbing Minneapolis Center
01:11PM 44.3494 -92.8111 171° South 338 389 25,200 2,700 Climbing Minneapolis Center
01:12PM 44.2536 -92.7136 144° Southeast 356 410 28,200 1,800 Climbing Minneapolis Center
01:13PM 44.1739 -92.6167 139° Southeast 376 433 29,000 360 Climbing Minneapolis Center
01:14PM 44.0839 -92.5047 138° Southeast 432 497 29,000  Level Minneapolis Center
01:15PM 43.9906 -92.3919 139° Southeast 444 511 29,000  Level Minneapolis Center
01:16PM 43.8981 -92.2794 139° Southeast 444 511 29,000  Level Minneapolis Center
01:17PM 43.8011 -92.1578 138° Southeast 443 510 29,000  Level Minneapolis Center
01:18PM 43.7078 -92.0464 139° Southeast 445 512 29,000  Level Minneapolis Center
01:19PM 43.6167 -91.9358 139° Southeast 441 507 29,000  Level Minneapolis Center
01:20PM 43.5058 -91.8058 140° Southeast 438 504 29,000  Level Minneapolis Center
01:21PM 43.4125 -91.6969 140° Southeast 439 505 29,000  Level Minneapolis Center
01:22PM 43.3200 -91.5867 139° Southeast 441 507 29,000  Level Minneapolis Center
01:23PM 43.2203 -91.4789 142° Southeast 442 509 29,000  Level Minneapolis Center
01:24PM 43.1217 -91.3867 146° Southeast 444 511 29,000  Level Minneapolis Center
01:25PM 43.0206 -91.2900 145° Southeast 444 511 29,000  Level Minneapolis Center
01:26PM 42.9189 -91.1947 146° Southeast 442 509 29,000 -120 Level Minneapolis Center
01:27PM 42.7981 -91.0811 145° Southeast 440 506 28,800 -240 Descending Minneapolis Center
01:28PM 42.7789 -91.0631 145° Southeast 440 506 28,700 -960 Descending Chicago Center
01:29PM 42.6603 -90.9522 145° Southeast 432 497 27,500 -1,020 Descending Chicago Center
01:30PM 42.5644 -90.8614 145° Southeast 424 488 26,600 -960 Descending Chicago Center
01:31PM 42.4694 -90.7725 145° Southeast 418 481 25,600 -1,260 Descending Chicago Center
01:32PM 42.3681 -90.6981 152° Southeast 418 481 24,000 -780 Descending Chicago Center
01:33PM 42.2575 -90.6622 167° South 411 473 24,000  Level Chicago Center
01:34PM 42.1253 -90.6186 166° South 408 470 24,000  Level Chicago Center
01:35PM 42.0153 -90.5828 166° South 408 470 24,000 -480 Level Chicago Center
01:36PM 41.9042 -90.5486 167° South 411 473 23,100 -540 Descending Chicago Center
01:37PM 41.7961 -90.5122 166° South 406 467 23,000 -480 Descending Chicago Center
01:38PM 41.6956 -90.4461 154° Southeast 407 468 22,200 -1,200 Descending Chicago Center
01:39PM 41.6203 -90.3422 134° Southeast 392 451 20,600 -1,620 Descending Chicago Center
01:40PM 41.5419 -90.2089 128° Southeast 379 436 18,900 -1,500 Descending Chicago Center
01:41PM 41.4753 -90.0992 129° Southeast 380 437 17,500 -1,440 Descending Chicago Center
01:42PM 41.4089 -89.9914 129° Southeast 377 434 16,000 -1,260 Descending Chicago Center
01:43PM 41.3533 -89.8764 123° Southeast 370 426 15,000 -540 Descending Chicago Center
01:44PM 41.3478 -89.7514 93° East 347 399 15,000  Level Chicago Center
01:45PM 41.3667 -89.6219 79° East 355 409 15,000 -540 Level Chicago Center
01:46PM 41.3856 -89.4956 79° East 346 398 13,900 -2,040 Descending Chicago Center
01:47PM 41.4014 -89.3800 80° East 321 369 10,900 -2,640 Descending Chicago Center
01:48PM 41.4197 -89.2497 79° East 298 343 8,600 -2,040 Descending Chicago Center
01:49PM 41.4311 -89.1597 80° East 272 313 6,800 -1,260 Descending Chicago Center
01:50PM 41.4456 -89.0628 79° East 268 308 6,000 -420 Descending Chicago Center
01:51PM 41.4594 -88.9672 79° East 265 305 6,000  Level Chicago Center
01:52PM 41.4742 -88.8533 80° East 261 300 6,000  Level Chicago Center
01:53PM 41.4878 -88.7583 79° East 263 303 6,000  Level Chicago Center
01:55PM 41.5011 -88.6603 80° East 267 307 6,000  Level Chicago Center
01:56PM 41.5139 -88.5622 80° East 268 308 6,000  Level Chicago Center
01:57PM 41.5278 -88.4644 79° East 269 310 6,000 -480 Level Chicago Center
01:58PM 41.5428 -88.3706 78° East 262 302 5,100 -540 Descending Chicago Center
01:59PM 41.5589 -88.2594 79° East 254 292 5,000 -120 Descending Chicago Center
02:00PM 41.5733 -88.1814 76° East 223 257 4,900 -540 Descending Chicago Center
02:01PM 41.5731 -88.1008 90° East 218 251 4,000 -480 Descending Chicago Center
02:02PM 41.5808 -88.0242 82° East 215 247 4,000  Level Chicago Center
02:03PM 41.6153 -87.9614 54° Northeast 212 244 4,000 -60 Level Chicago Center
02:04PM 41.6614 -87.9075 41° Northeast 216 249 3,900 -600 Descending Chicago Center
02:05PM 41.7031 -87.8561 43° Northeast 212 244 2,800 -1,200 Descending Chicago Center
02:06PM 41.7333 -87.8000 54° Northeast 186 214 1,700 -1,020 Descending Chicago TRACON
02:07PM 41.7667 -87.7667 37° Northeast 138 159 900 -840 Descending Chicago TRACON